sensor_id;sensor_type;location;lat;lon;timestamp;P1;durP1;ratioP1;P2;durP2;ratioP2
71771;SDS011;59606;52.138;5.424;2023-08-20T00:02:19;9.40;;;4.45;;
71771;SDS011;59606;52.138;5.424;2023-08-20T00:04:49;7.63;;;3.70;;
71771;SDS011;59606;52.138;5.424;2023-08-20T00:07:17;8.52;;;4.25;;
71771;SDS011;59606;52.138;5.424;2023-08-20T00:09:44;9.73;;;3.73;;
71771;SDS011;59606;52.138;5.424;2023-08-20T00:12:11;12.60;;;3.50;;
71771;SDS011;59606;52.138;5.424;2023-08-20T00:14:54;6.95;;;3.47;;
71771;SDS011;59606;52.138;5.424;2023-08-20T00:17:25;8.48;;;3.58;;
71771;SDS011;59606;52.138;5.424;2023-08-20T00:19:54;12.15;;;4.00;;
71771;SDS011;59606;52.138;5.424;2023-08-20T00:22:22;7.63;;;3.50;;
71771;SDS011;59606;52.138;5.424;2023-08-20T00:24:50;11.98;;;4.25;;
71771;SDS011;59606;52.138;5.424;2023-08-20T00:27:18;14.35;;;4.05;;
71771;SDS011;59606;52.138;5.424;2023-08-20T00:29:44;7.22;;;3.67;;
71771;SDS011;59606;52.138;5.424;2023-08-20T00:32:11;9.65;;;4.13;;
71771;SDS011;59606;52.138;5.424;2023-08-20T00:34:37;10.57;;;3.43;;
71771;SDS011;59606;52.138;5.424;2023-08-20T00:37:04;9.80;;;4.07;;
71771;SDS011;59606;52.138;5.424;2023-08-20T00:39:30;10.60;;;3.50;;
71771;SDS011;59606;52.138;5.424;2023-08-20T00:41:57;11.18;;;3.63;;
71771;SDS011;59606;52.138;5.424;2023-08-20T00:44:24;15.43;;;3.78;;
71771;SDS011;59606;52.138;5.424;2023-08-20T00:46:50;7.50;;;4.27;;
71771;SDS011;59606;52.138;5.424;2023-08-20T00:49:17;10.35;;;4.03;;
71771;SDS011;59606;52.138;5.424;2023-08-20T00:51:44;11.43;;;3.83;;
71771;SDS011;59606;52.138;5.424;2023-08-20T00:54:14;10.52;;;4.18;;
71771;SDS011;59606;52.138;5.424;2023-08-20T00:56:40;9.30;;;3.88;;
71771;SDS011;59606;52.138;5.424;2023-08-20T00:59:07;12.00;;;3.67;;
71771;SDS011;59606;52.138;5.424;2023-08-20T01:01:34;10.73;;;3.85;;
71771;SDS011;59606;52.138;5.424;2023-08-20T01:04:01;12.77;;;4.75;;
71771;SDS011;59606;52.138;5.424;2023-08-20T01:09:48;14.85;;;4.13;;
71771;SDS011;59606;52.138;5.424;2023-08-20T01:12:08;7.30;;;3.27;;
71771;SDS011;59606;52.138;5.424;2023-08-20T01:14:36;9.05;;;3.90;;
71771;SDS011;59606;52.138;5.424;2023-08-20T01:17:02;8.63;;;3.75;;
71771;SDS011;59606;52.138;5.424;2023-08-20T01:19:29;8.15;;;3.42;;
71771;SDS011;59606;52.138;5.424;2023-08-20T01:22:58;6.68;;;3.78;;
71771;SDS011;59606;52.138;5.424;2023-08-20T01:25:11;9.50;;;3.33;;
71771;SDS011;59606;52.138;5.424;2023-08-20T01:30:32;12.30;;;3.63;;
71771;SDS011;59606;52.138;5.424;2023-08-20T01:33:00;9.90;;;3.72;;
71771;SDS011;59606;52.138;5.424;2023-08-20T01:35:27;6.07;;;3.42;;
71771;SDS011;59606;52.138;5.424;2023-08-20T01:37:54;6.77;;;3.17;;
71771;SDS011;59606;52.138;5.424;2023-08-20T01:40:21;7.85;;;3.15;;
71771;SDS011;59606;52.138;5.424;2023-08-20T01:42:47;7.68;;;3.45;;
71771;SDS011;59606;52.138;5.424;2023-08-20T01:45:14;9.63;;;3.20;;
71771;SDS011;59606;52.138;5.424;2023-08-20T01:47:40;7.55;;;3.33;;
71771;SDS011;59606;52.138;5.424;2023-08-20T01:50:07;11.43;;;3.77;;
71771;SDS011;59606;52.138;5.424;2023-08-20T01:52:34;11.30;;;3.83;;
71771;SDS011;59606;52.138;5.424;2023-08-20T01:55:01;7.22;;;3.60;;
71771;SDS011;59606;52.138;5.424;2023-08-20T01:57:28;9.75;;;3.67;;
71771;SDS011;59606;52.138;5.424;2023-08-20T01:59:55;6.32;;;3.15;;
71771;SDS011;59606;52.138;5.424;2023-08-20T02:02:21;7.30;;;2.87;;
71771;SDS011;59606;52.138;5.424;2023-08-20T02:04:48;8.43;;;3.00;;
71771;SDS011;59606;52.138;5.424;2023-08-20T02:07:14;8.30;;;3.25;;
71771;SDS011;59606;52.138;5.424;2023-08-20T02:09:41;8.30;;;3.00;;
71771;SDS011;59606;52.138;5.424;2023-08-20T02:12:08;8.75;;;3.20;;
71771;SDS011;59606;52.138;5.424;2023-08-20T02:14:34;6.57;;;2.87;;
71771;SDS011;59606;52.138;5.424;2023-08-20T02:17:01;8.70;;;3.17;;
71771;SDS011;59606;52.138;5.424;2023-08-20T02:19:29;6.80;;;3.40;;
71771;SDS011;59606;52.138;5.424;2023-08-20T02:21:55;7.10;;;3.10;;
71771;SDS011;59606;52.138;5.424;2023-08-20T02:24:22;10.10;;;3.13;;
71771;SDS011;59606;52.138;5.424;2023-08-20T02:26:48;7.70;;;3.10;;
71771;SDS011;59606;52.138;5.424;2023-08-20T02:29:15;10.07;;;3.50;;
71771;SDS011;59606;52.138;5.424;2023-08-20T02:31:42;7.60;;;3.30;;
71771;SDS011;59606;52.138;5.424;2023-08-20T02:34:08;6.60;;;3.22;;
71771;SDS011;59606;52.138;5.424;2023-08-20T02:36:35;9.07;;;3.40;;
71771;SDS011;59606;52.138;5.424;2023-08-20T02:39:02;10.53;;;3.50;;
71771;SDS011;59606;52.138;5.424;2023-08-20T02:41:30;8.57;;;3.30;;
71771;SDS011;59606;52.138;5.424;2023-08-20T02:43:56;7.78;;;3.78;;
71771;SDS011;59606;52.138;5.424;2023-08-20T02:46:23;7.95;;;3.85;;
71771;SDS011;59606;52.138;5.424;2023-08-20T02:48:49;7.03;;;3.70;;
71771;SDS011;59606;52.138;5.424;2023-08-20T02:51:16;8.90;;;3.37;;
71771;SDS011;59606;52.138;5.424;2023-08-20T02:53:42;12.30;;;3.85;;
71771;SDS011;59606;52.138;5.424;2023-08-20T02:56:09;8.00;;;3.80;;
71771;SDS011;59606;52.138;5.424;2023-08-20T02:58:36;8.25;;;3.53;;
71771;SDS011;59606;52.138;5.424;2023-08-20T03:01:03;7.43;;;3.75;;
71771;SDS011;59606;52.138;5.424;2023-08-20T03:03:29;11.50;;;4.17;;
71771;SDS011;59606;52.138;5.424;2023-08-20T03:05:56;9.48;;;3.83;;
71771;SDS011;59606;52.138;5.424;2023-08-20T03:08:22;7.55;;;3.35;;
71771;SDS011;59606;52.138;5.424;2023-08-20T03:10:49;9.65;;;3.72;;
71771;SDS011;59606;52.138;5.424;2023-08-20T03:13:15;9.30;;;3.55;;
71771;SDS011;59606;52.138;5.424;2023-08-20T03:15:42;9.47;;;3.57;;
71771;SDS011;59606;52.138;5.424;2023-08-20T03:18:09;9.05;;;4.13;;
71771;SDS011;59606;52.138;5.424;2023-08-20T03:20:35;8.93;;;4.15;;
71771;SDS011;59606;52.138;5.424;2023-08-20T03:23:02;9.48;;;4.13;;
71771;SDS011;59606;52.138;5.424;2023-08-20T03:25:28;8.05;;;3.85;;
71771;SDS011;59606;52.138;5.424;2023-08-20T03:27:55;10.80;;;4.90;;
71771;SDS011;59606;52.138;5.424;2023-08-20T03:30:21;11.90;;;4.32;;
71771;SDS011;59606;52.138;5.424;2023-08-20T03:32:48;13.68;;;5.00;;
71771;SDS011;59606;52.138;5.424;2023-08-20T03:35:14;13.52;;;4.65;;
71771;SDS011;59606;52.138;5.424;2023-08-20T03:37:42;9.73;;;5.00;;
71771;SDS011;59606;52.138;5.424;2023-08-20T03:40:08;15.07;;;5.03;;
71771;SDS011;59606;52.138;5.424;2023-08-20T03:42:35;9.00;;;4.70;;
71771;SDS011;59606;52.138;5.424;2023-08-20T03:45:02;10.43;;;4.57;;
71771;SDS011;59606;52.138;5.424;2023-08-20T03:47:28;11.07;;;4.38;;
71771;SDS011;59606;52.138;5.424;2023-08-20T03:49:55;9.05;;;4.40;;
71771;SDS011;59606;52.138;5.424;2023-08-20T03:52:22;11.63;;;4.37;;
71771;SDS011;59606;52.138;5.424;2023-08-20T03:54:48;14.10;;;4.80;;
71771;SDS011;59606;52.138;5.424;2023-08-20T03:57:16;7.75;;;4.00;;
71771;SDS011;59606;52.138;5.424;2023-08-20T03:59:43;11.18;;;4.22;;
71771;SDS011;59606;52.138;5.424;2023-08-20T04:02:11;10.23;;;3.97;;
71771;SDS011;59606;52.138;5.424;2023-08-20T04:04:38;8.80;;;3.63;;
71771;SDS011;59606;52.138;5.424;2023-08-20T04:07:04;10.35;;;4.13;;
71771;SDS011;59606;52.138;5.424;2023-08-20T04:09:32;6.97;;;4.07;;
71771;SDS011;59606;52.138;5.424;2023-08-20T04:11:59;9.68;;;3.67;;
71771;SDS011;59606;52.138;5.424;2023-08-20T04:14:25;10.30;;;4.30;;
71771;SDS011;59606;52.138;5.424;2023-08-20T04:16:52;11.10;;;3.80;;
71771;SDS011;59606;52.138;5.424;2023-08-20T04:19:18;7.38;;;3.50;;
71771;SDS011;59606;52.138;5.424;2023-08-20T04:21:45;10.98;;;3.95;;
71771;SDS011;59606;52.138;5.424;2023-08-20T04:24:11;9.38;;;4.03;;
71771;SDS011;59606;52.138;5.424;2023-08-20T04:26:38;6.85;;;3.42;;
71771;SDS011;59606;52.138;5.424;2023-08-20T04:29:04;10.00;;;3.83;;
71771;SDS011;59606;52.138;5.424;2023-08-20T04:31:31;9.85;;;3.03;;
71771;SDS011;59606;52.138;5.424;2023-08-20T04:33:58;7.65;;;3.05;;
71771;SDS011;59606;52.138;5.424;2023-08-20T04:36:25;10.82;;;3.55;;
71771;SDS011;59606;52.138;5.424;2023-08-20T04:38:51;8.60;;;3.53;;
71771;SDS011;59606;52.138;5.424;2023-08-20T04:41:18;5.93;;;2.97;;
71771;SDS011;59606;52.138;5.424;2023-08-20T04:43:44;6.70;;;3.50;;
71771;SDS011;59606;52.138;5.424;2023-08-20T04:46:11;7.30;;;3.25;;
71771;SDS011;59606;52.138;5.424;2023-08-20T04:48:37;7.43;;;3.25;;
71771;SDS011;59606;52.138;5.424;2023-08-20T04:51:05;8.13;;;3.50;;
71771;SDS011;59606;52.138;5.424;2023-08-20T04:53:32;8.43;;;3.50;;
71771;SDS011;59606;52.138;5.424;2023-08-20T04:55:58;10.32;;;3.67;;
71771;SDS011;59606;52.138;5.424;2023-08-20T04:58:25;6.63;;;3.85;;
71771;SDS011;59606;52.138;5.424;2023-08-20T05:00:52;6.05;;;2.85;;
71771;SDS011;59606;52.138;5.424;2023-08-20T05:03:18;9.65;;;3.88;;
71771;SDS011;59606;52.138;5.424;2023-08-20T05:05:51;6.93;;;3.20;;
71771;SDS011;59606;52.138;5.424;2023-08-20T05:08:18;8.90;;;3.53;;
71771;SDS011;59606;52.138;5.424;2023-08-20T05:10:44;7.00;;;3.72;;
71771;SDS011;59606;52.138;5.424;2023-08-20T05:13:11;8.48;;;3.75;;
71771;SDS011;59606;52.138;5.424;2023-08-20T05:15:37;7.78;;;3.30;;
71771;SDS011;59606;52.138;5.424;2023-08-20T05:18:04;8.80;;;3.43;;
71771;SDS011;59606;52.138;5.424;2023-08-20T05:20:31;8.88;;;3.83;;
71771;SDS011;59606;52.138;5.424;2023-08-20T05:22:57;7.85;;;4.05;;
71771;SDS011;59606;52.138;5.424;2023-08-20T05:25:24;7.70;;;3.53;;
71771;SDS011;59606;52.138;5.424;2023-08-20T05:27:52;11.43;;;4.00;;
71771;SDS011;59606;52.138;5.424;2023-08-20T05:30:18;11.50;;;4.03;;
71771;SDS011;59606;52.138;5.424;2023-08-20T05:32:45;8.40;;;4.00;;
71771;SDS011;59606;52.138;5.424;2023-08-20T05:35:11;8.45;;;4.03;;
71771;SDS011;59606;52.138;5.424;2023-08-20T05:37:38;11.30;;;4.25;;
71771;SDS011;59606;52.138;5.424;2023-08-20T05:40:05;13.70;;;4.53;;
71771;SDS011;59606;52.138;5.424;2023-08-20T05:42:32;6.93;;;4.37;;
71771;SDS011;59606;52.138;5.424;2023-08-20T05:44:59;10.43;;;4.28;;
71771;SDS011;59606;52.138;5.424;2023-08-20T05:47:26;9.40;;;3.65;;
71771;SDS011;59606;52.138;5.424;2023-08-20T05:49:52;10.35;;;3.75;;
71771;SDS011;59606;52.138;5.424;2023-08-20T05:52:19;9.40;;;3.97;;
71771;SDS011;59606;52.138;5.424;2023-08-20T05:54:45;12.47;;;4.33;;
71771;SDS011;59606;52.138;5.424;2023-08-20T05:57:12;10.32;;;4.35;;
71771;SDS011;59606;52.138;5.424;2023-08-20T05:59:38;11.85;;;3.90;;
71771;SDS011;59606;52.138;5.424;2023-08-20T06:02:05;11.07;;;4.32;;
71771;SDS011;59606;52.138;5.424;2023-08-20T06:04:32;9.68;;;4.07;;
71771;SDS011;59606;52.138;5.424;2023-08-20T06:06:58;10.60;;;4.23;;
71771;SDS011;59606;52.138;5.424;2023-08-20T06:09:25;9.25;;;4.05;;
71771;SDS011;59606;52.138;5.424;2023-08-20T06:11:51;15.57;;;4.68;;
71771;SDS011;59606;52.138;5.424;2023-08-20T06:14:18;11.45;;;3.63;;
71771;SDS011;59606;52.138;5.424;2023-08-20T06:16:44;8.60;;;3.88;;
71771;SDS011;59606;52.138;5.424;2023-08-20T06:19:11;10.80;;;3.60;;
71771;SDS011;59606;52.138;5.424;2023-08-20T06:21:37;9.07;;;3.72;;
71771;SDS011;59606;52.138;5.424;2023-08-20T06:24:04;10.88;;;3.60;;
71771;SDS011;59606;52.138;5.424;2023-08-20T06:26:31;9.90;;;3.60;;
71771;SDS011;59606;52.138;5.424;2023-08-20T06:28:57;8.52;;;3.55;;
71771;SDS011;59606;52.138;5.424;2023-08-20T06:31:24;11.27;;;3.27;;
71771;SDS011;59606;52.138;5.424;2023-08-20T06:33:51;9.80;;;3.05;;
71771;SDS011;59606;52.138;5.424;2023-08-20T06:36:17;11.32;;;3.00;;
71771;SDS011;59606;52.138;5.424;2023-08-20T06:38:45;6.47;;;2.58;;
71771;SDS011;59606;52.138;5.424;2023-08-20T06:41:12;8.38;;;2.63;;
71771;SDS011;59606;52.138;5.424;2023-08-20T06:43:38;6.30;;;1.97;;
71771;SDS011;59606;52.138;5.424;2023-08-20T06:46:05;6.88;;;2.55;;
71771;SDS011;59606;52.138;5.424;2023-08-20T06:48:31;6.53;;;2.17;;
71771;SDS011;59606;52.138;5.424;2023-08-20T06:50:58;6.80;;;2.35;;
71771;SDS011;59606;52.138;5.424;2023-08-20T06:53:24;8.20;;;2.22;;
71771;SDS011;59606;52.138;5.424;2023-08-20T06:55:51;6.10;;;1.93;;
71771;SDS011;59606;52.138;5.424;2023-08-20T06:58:17;6.18;;;1.98;;
71771;SDS011;59606;52.138;5.424;2023-08-20T07:00:44;5.53;;;1.75;;
71771;SDS011;59606;52.138;5.424;2023-08-20T07:03:11;9.82;;;2.15;;
71771;SDS011;59606;52.138;5.424;2023-08-20T07:05:37;10.05;;;2.45;;
71771;SDS011;59606;52.138;5.424;2023-08-20T07:08:04;6.07;;;1.77;;
71771;SDS011;59606;52.138;5.424;2023-08-20T07:10:30;10.20;;;1.65;;
71771;SDS011;59606;52.138;5.424;2023-08-20T07:12:57;13.45;;;2.38;;
71771;SDS011;59606;52.138;5.424;2023-08-20T07:15:23;13.30;;;1.90;;
71771;SDS011;59606;52.138;5.424;2023-08-20T07:17:50;8.18;;;1.40;;
71771;SDS011;59606;52.138;5.424;2023-08-20T07:20:16;7.70;;;1.30;;
71771;SDS011;59606;52.138;5.424;2023-08-20T07:22:43;10.20;;;1.58;;
71771;SDS011;59606;52.138;5.424;2023-08-20T07:25:09;5.97;;;1.60;;
71771;SDS011;59606;52.138;5.424;2023-08-20T07:27:36;12.70;;;1.60;;
71771;SDS011;59606;52.138;5.424;2023-08-20T07:30:03;6.90;;;1.40;;
71771;SDS011;59606;52.138;5.424;2023-08-20T07:32:30;8.37;;;1.70;;
71771;SDS011;59606;52.138;5.424;2023-08-20T07:34:56;8.13;;;1.80;;
71771;SDS011;59606;52.138;5.424;2023-08-20T07:37:23;9.48;;;2.10;;
71771;SDS011;59606;52.138;5.424;2023-08-20T07:39:49;7.75;;;1.38;;
71771;SDS011;59606;52.138;5.424;2023-08-20T07:42:16;8.52;;;1.20;;
71771;SDS011;59606;52.138;5.424;2023-08-20T07:44:44;6.73;;;1.30;;
71771;SDS011;59606;52.138;5.424;2023-08-20T07:47:11;3.47;;;1.13;;
71771;SDS011;59606;52.138;5.424;2023-08-20T07:49:37;4.88;;;0.93;;
71771;SDS011;59606;52.138;5.424;2023-08-20T07:52:04;8.65;;;1.40;;
71771;SDS011;59606;52.138;5.424;2023-08-20T07:54:30;6.60;;;0.90;;
71771;SDS011;59606;52.138;5.424;2023-08-20T07:56:57;6.73;;;1.13;;
71771;SDS011;59606;52.138;5.424;2023-08-20T07:59:24;9.82;;;1.33;;
71771;SDS011;59606;52.138;5.424;2023-08-20T08:01:50;5.25;;;1.13;;
71771;SDS011;59606;52.138;5.424;2023-08-20T08:04:17;7.70;;;0.90;;
71771;SDS011;59606;52.138;5.424;2023-08-20T08:06:43;6.50;;;1.23;;
71771;SDS011;59606;52.138;5.424;2023-08-20T08:09:20;6.60;;;1.40;;
71771;SDS011;59606;52.138;5.424;2023-08-20T08:11:48;5.18;;;1.02;;
71771;SDS011;59606;52.138;5.424;2023-08-20T08:14:15;4.70;;;1.00;;
71771;SDS011;59606;52.138;5.424;2023-08-20T08:16:42;6.45;;;1.00;;
71771;SDS011;59606;52.138;5.424;2023-08-20T08:19:08;7.93;;;0.80;;
71771;SDS011;59606;52.138;5.424;2023-08-20T08:21:35;5.33;;;0.80;;
71771;SDS011;59606;52.138;5.424;2023-08-20T08:24:02;6.45;;;1.23;;
71771;SDS011;59606;52.138;5.424;2023-08-20T08:26:29;6.75;;;0.98;;
71771;SDS011;59606;52.138;5.424;2023-08-20T08:28:55;7.85;;;0.90;;
71771;SDS011;59606;52.138;5.424;2023-08-20T08:31:22;4.28;;;0.93;;
71771;SDS011;59606;52.138;5.424;2023-08-20T08:33:49;3.70;;;0.60;;
71771;SDS011;59606;52.138;5.424;2023-08-20T08:36:15;7.45;;;0.90;;
71771;SDS011;59606;52.138;5.424;2023-08-20T08:38:43;3.03;;;0.75;;
71771;SDS011;59606;52.138;5.424;2023-08-20T08:41:11;4.85;;;0.80;;
71771;SDS011;59606;52.138;5.424;2023-08-20T08:43:39;3.47;;;0.50;;
71771;SDS011;59606;52.138;5.424;2023-08-20T08:46:07;5.43;;;0.63;;
71771;SDS011;59606;52.138;5.424;2023-08-20T08:48:36;5.90;;;1.10;;
71771;SDS011;59606;52.138;5.424;2023-08-20T08:51:03;6.38;;;0.60;;
71771;SDS011;59606;52.138;5.424;2023-08-20T08:53:29;8.25;;;1.00;;
71771;SDS011;59606;52.138;5.424;2023-08-20T08:55:59;3.95;;;1.00;;
71771;SDS011;59606;52.138;5.424;2023-08-20T08:58:26;4.23;;;0.60;;
71771;SDS011;59606;52.138;5.424;2023-08-20T09:00:53;9.25;;;1.15;;
71771;SDS011;59606;52.138;5.424;2023-08-20T09:03:20;4.75;;;0.70;;
71771;SDS011;59606;52.138;5.424;2023-08-20T09:05:47;3.90;;;0.68;;
71771;SDS011;59606;52.138;5.424;2023-08-20T09:08:21;3.17;;;0.80;;
71771;SDS011;59606;52.138;5.424;2023-08-20T09:10:52;3.60;;;0.57;;
71771;SDS011;59606;52.138;5.424;2023-08-20T09:13:54;4.07;;;0.40;;
71771;SDS011;59606;52.138;5.424;2023-08-20T09:16:14;4.50;;;0.55;;
71771;SDS011;59606;52.138;5.424;2023-08-20T09:18:41;4.47;;;0.60;;
71771;SDS011;59606;52.138;5.424;2023-08-20T09:21:11;5.13;;;0.82;;
71771;SDS011;59606;52.138;5.424;2023-08-20T09:23:39;2.83;;;0.53;;
71771;SDS011;59606;52.138;5.424;2023-08-20T09:26:06;2.53;;;0.80;;
71771;SDS011;59606;52.138;5.424;2023-08-20T09:28:43;6.10;;;1.13;;
71771;SDS011;59606;52.138;5.424;2023-08-20T09:31:13;3.47;;;0.70;;
71771;SDS011;59606;52.138;5.424;2023-08-20T09:33:49;3.58;;;0.90;;
71771;SDS011;59606;52.138;5.424;2023-08-20T09:36:17;5.13;;;0.70;;
71771;SDS011;59606;52.138;5.424;2023-08-20T09:38:44;3.25;;;0.77;;
71771;SDS011;59606;52.138;5.424;2023-08-20T09:41:13;3.03;;;0.60;;
71771;SDS011;59606;52.138;5.424;2023-08-20T09:43:39;2.38;;;0.80;;
71771;SDS011;59606;52.138;5.424;2023-08-20T09:46:09;3.60;;;0.82;;
71771;SDS011;59606;52.138;5.424;2023-08-20T09:48:37;3.97;;;0.80;;
71771;SDS011;59606;52.138;5.424;2023-08-20T09:51:05;3.92;;;0.70;;
71771;SDS011;59606;52.138;5.424;2023-08-20T09:53:37;3.40;;;0.65;;
71771;SDS011;59606;52.138;5.424;2023-08-20T09:56:26;5.07;;;0.70;;
71771;SDS011;59606;52.138;5.424;2023-08-20T09:59:03;5.47;;;0.75;;
71771;SDS011;59606;52.138;5.424;2023-08-20T10:01:30;5.17;;;0.53;;
71771;SDS011;59606;52.138;5.424;2023-08-20T10:03:57;4.35;;;0.75;;
71771;SDS011;59606;52.138;5.424;2023-08-20T10:06:24;4.53;;;1.05;;
71771;SDS011;59606;52.138;5.424;2023-08-20T10:08:52;4.65;;;0.63;;
71771;SDS011;59606;52.138;5.424;2023-08-20T10:11:21;5.65;;;0.80;;
71771;SDS011;59606;52.138;5.424;2023-08-20T10:13:48;3.70;;;0.80;;
71771;SDS011;59606;52.138;5.424;2023-08-20T10:16:17;3.28;;;0.90;;
71771;SDS011;59606;52.138;5.424;2023-08-20T10:18:47;4.13;;;0.50;;
71771;SDS011;59606;52.138;5.424;2023-08-20T10:21:14;2.53;;;0.50;;
71771;SDS011;59606;52.138;5.424;2023-08-20T10:23:41;4.72;;;0.57;;
71771;SDS011;59606;52.138;5.424;2023-08-20T10:26:11;4.43;;;1.07;;
71771;SDS011;59606;52.138;5.424;2023-08-20T10:28:37;3.45;;;0.52;;
71771;SDS011;59606;52.138;5.424;2023-08-20T10:31:05;3.72;;;0.63;;
71771;SDS011;59606;52.138;5.424;2023-08-20T10:33:48;4.38;;;0.90;;
71771;SDS011;59606;52.138;5.424;2023-08-20T10:36:17;4.75;;;0.77;;
71771;SDS011;59606;52.138;5.424;2023-08-20T10:38:49;1.50;;;0.50;;
71771;SDS011;59606;52.138;5.424;2023-08-20T10:41:16;4.72;;;0.90;;
71771;SDS011;59606;52.138;5.424;2023-08-20T10:43:50;3.33;;;0.63;;
71771;SDS011;59606;52.138;5.424;2023-08-20T10:48:56;3.80;;;0.52;;
71771;SDS011;59606;52.138;5.424;2023-08-20T10:56:38;4.97;;;1.00;;
71771;SDS011;59606;52.138;5.424;2023-08-20T10:59:14;3.97;;;0.55;;
71771;SDS011;59606;52.138;5.424;2023-08-20T11:01:45;2.72;;;0.57;;
71771;SDS011;59606;52.138;5.424;2023-08-20T11:04:14;9.10;;;2.83;;
71771;SDS011;59606;52.138;5.424;2023-08-20T11:06:42;5.32;;;0.88;;
71771;SDS011;59606;52.138;5.424;2023-08-20T11:09:09;4.13;;;0.82;;
71771;SDS011;59606;52.138;5.424;2023-08-20T11:11:40;2.70;;;0.68;;
71771;SDS011;59606;52.138;5.424;2023-08-20T11:14:11;3.75;;;0.60;;
71771;SDS011;59606;52.138;5.424;2023-08-20T11:16:42;3.90;;;0.50;;
71771;SDS011;59606;52.138;5.424;2023-08-20T11:19:10;5.70;;;0.70;;
71771;SDS011;59606;52.138;5.424;2023-08-20T11:21:37;3.53;;;0.68;;
71771;SDS011;59606;52.138;5.424;2023-08-20T11:24:05;3.88;;;0.60;;
71771;SDS011;59606;52.138;5.424;2023-08-20T11:26:33;2.72;;;0.77;;
71771;SDS011;59606;52.138;5.424;2023-08-20T11:29:10;2.40;;;0.60;;
71771;SDS011;59606;52.138;5.424;2023-08-20T11:31:48;2.25;;;0.52;;
71771;SDS011;59606;52.138;5.424;2023-08-20T11:34:15;3.33;;;0.60;;
71771;SDS011;59606;52.138;5.424;2023-08-20T11:36:44;4.90;;;1.15;;
71771;SDS011;59606;52.138;5.424;2023-08-20T11:39:12;2.63;;;0.50;;
71771;SDS011;59606;52.138;5.424;2023-08-20T11:41:39;2.73;;;0.60;;
71771;SDS011;59606;52.138;5.424;2023-08-20T11:44:09;3.17;;;0.50;;
71771;SDS011;59606;52.138;5.424;2023-08-20T11:46:42;5.10;;;0.73;;
71771;SDS011;59606;52.138;5.424;2023-08-20T11:49:11;5.30;;;0.77;;
71771;SDS011;59606;52.138;5.424;2023-08-20T11:51:39;4.45;;;0.70;;
71771;SDS011;59606;52.138;5.424;2023-08-20T11:54:08;4.07;;;0.80;;
71771;SDS011;59606;52.138;5.424;2023-08-20T11:56:36;5.35;;;0.90;;
71771;SDS011;59606;52.138;5.424;2023-08-20T11:59:10;2.60;;;0.50;;
71771;SDS011;59606;52.138;5.424;2023-08-20T12:01:37;3.28;;;0.70;;
71771;SDS011;59606;52.138;5.424;2023-08-20T12:04:04;5.03;;;0.70;;
71771;SDS011;59606;52.138;5.424;2023-08-20T12:06:33;4.40;;;0.70;;
71771;SDS011;59606;52.138;5.424;2023-08-20T12:09:02;3.88;;;0.98;;
71771;SDS011;59606;52.138;5.424;2023-08-20T12:11:51;3.13;;;0.70;;
71771;SDS011;59606;52.138;5.424;2023-08-20T12:14:18;3.78;;;0.60;;
71771;SDS011;59606;52.138;5.424;2023-08-20T12:16:45;4.63;;;0.85;;
71771;SDS011;59606;52.138;5.424;2023-08-20T12:19:13;3.10;;;0.53;;
71771;SDS011;59606;52.138;5.424;2023-08-20T12:21:42;5.70;;;0.80;;
71771;SDS011;59606;52.138;5.424;2023-08-20T12:24:09;5.43;;;0.70;;
71771;SDS011;59606;52.138;5.424;2023-08-20T12:26:37;1.98;;;0.40;;
71771;SDS011;59606;52.138;5.424;2023-08-20T12:29:03;4.80;;;0.70;;
71771;SDS011;59606;52.138;5.424;2023-08-20T12:31:31;3.17;;;0.50;;
71771;SDS011;59606;52.138;5.424;2023-08-20T12:34:01;4.13;;;0.60;;
71771;SDS011;59606;52.138;5.424;2023-08-20T12:36:29;3.40;;;0.50;;
71771;SDS011;59606;52.138;5.424;2023-08-20T12:38:56;5.22;;;0.80;;
71771;SDS011;59606;52.138;5.424;2023-08-20T12:41:23;2.70;;;0.60;;
71771;SDS011;59606;52.138;5.424;2023-08-20T12:43:49;4.60;;;0.60;;
71771;SDS011;59606;52.138;5.424;2023-08-20T12:46:16;5.57;;;0.65;;
71771;SDS011;59606;52.138;5.424;2023-08-20T12:48:43;2.70;;;0.57;;
71771;SDS011;59606;52.138;5.424;2023-08-20T12:51:10;4.57;;;0.70;;
71771;SDS011;59606;52.138;5.424;2023-08-20T12:53:40;3.60;;;0.50;;
71771;SDS011;59606;52.138;5.424;2023-08-20T12:56:07;4.53;;;0.60;;
71771;SDS011;59606;52.138;5.424;2023-08-20T12:58:34;4.72;;;0.57;;
71771;SDS011;59606;52.138;5.424;2023-08-20T13:01:00;3.42;;;0.73;;
71771;SDS011;59606;52.138;5.424;2023-08-20T13:03:27;3.28;;;0.77;;
71771;SDS011;59606;52.138;5.424;2023-08-20T13:05:55;7.72;;;1.05;;
71771;SDS011;59606;52.138;5.424;2023-08-20T13:08:25;3.10;;;0.40;;
71771;SDS011;59606;52.138;5.424;2023-08-20T13:10:55;3.40;;;0.50;;
71771;SDS011;59606;52.138;5.424;2023-08-20T13:13:23;4.40;;;1.00;;
71771;SDS011;59606;52.138;5.424;2023-08-20T13:15:51;2.28;;;0.60;;
71771;SDS011;59606;52.138;5.424;2023-08-20T13:18:19;6.03;;;1.45;;
71771;SDS011;59606;52.138;5.424;2023-08-20T13:20:54;6.43;;;0.70;;
71771;SDS011;59606;52.138;5.424;2023-08-20T13:23:21;5.03;;;0.70;;
71771;SDS011;59606;52.138;5.424;2023-08-20T13:25:47;4.07;;;0.70;;
71771;SDS011;59606;52.138;5.424;2023-08-20T13:28:14;4.45;;;0.88;;
71771;SDS011;59606;52.138;5.424;2023-08-20T13:30:40;2.58;;;0.63;;
71771;SDS011;59606;52.138;5.424;2023-08-20T13:33:07;7.00;;;0.70;;
71771;SDS011;59606;52.138;5.424;2023-08-20T13:35:34;3.95;;;0.70;;
71771;SDS011;59606;52.138;5.424;2023-08-20T13:38:01;3.38;;;1.02;;
71771;SDS011;59606;52.138;5.424;2023-08-20T13:40:27;5.68;;;1.23;;
71771;SDS011;59606;52.138;5.424;2023-08-20T13:42:55;3.33;;;0.50;;
71771;SDS011;59606;52.138;5.424;2023-08-20T13:45:21;3.33;;;1.37;;
71771;SDS011;59606;52.138;5.424;2023-08-20T13:47:48;6.05;;;1.10;;
71771;SDS011;59606;52.138;5.424;2023-08-20T13:50:14;3.33;;;0.50;;
71771;SDS011;59606;52.138;5.424;2023-08-20T13:52:41;4.30;;;0.57;;
71771;SDS011;59606;52.138;5.424;2023-08-20T13:55:08;5.68;;;0.90;;
71771;SDS011;59606;52.138;5.424;2023-08-20T13:57:35;8.80;;;1.10;;
71771;SDS011;59606;52.138;5.424;2023-08-20T14:00:02;4.10;;;0.60;;
71771;SDS011;59606;52.138;5.424;2023-08-20T14:02:34;4.63;;;0.75;;
71771;SDS011;59606;52.138;5.424;2023-08-20T14:05:01;5.25;;;0.75;;
71771;SDS011;59606;52.138;5.424;2023-08-20T14:07:30;3.35;;;0.73;;
71771;SDS011;59606;52.138;5.424;2023-08-20T14:09:59;4.73;;;0.70;;
71771;SDS011;59606;52.138;5.424;2023-08-20T14:12:25;2.40;;;0.70;;
71771;SDS011;59606;52.138;5.424;2023-08-20T14:14:52;5.78;;;0.93;;
71771;SDS011;59606;52.138;5.424;2023-08-20T14:17:19;3.80;;;0.47;;
71771;SDS011;59606;52.138;5.424;2023-08-20T14:19:45;4.40;;;0.70;;
71771;SDS011;59606;52.138;5.424;2023-08-20T14:22:12;5.77;;;0.90;;
71771;SDS011;59606;52.138;5.424;2023-08-20T14:24:39;5.80;;;1.15;;
71771;SDS011;59606;52.138;5.424;2023-08-20T14:27:06;3.25;;;0.68;;
71771;SDS011;59606;52.138;5.424;2023-08-20T14:29:33;2.05;;;0.45;;
71771;SDS011;59606;52.138;5.424;2023-08-20T14:32:00;4.32;;;0.55;;
71771;SDS011;59606;52.138;5.424;2023-08-20T14:34:28;4.03;;;0.77;;
71771;SDS011;59606;52.138;5.424;2023-08-20T14:36:55;4.90;;;0.60;;
71771;SDS011;59606;52.138;5.424;2023-08-20T14:39:24;5.03;;;0.82;;
71771;SDS011;59606;52.138;5.424;2023-08-20T14:41:50;3.00;;;0.63;;
71771;SDS011;59606;52.138;5.424;2023-08-20T14:44:17;6.45;;;0.90;;
71771;SDS011;59606;52.138;5.424;2023-08-20T14:46:43;2.97;;;0.77;;
71771;SDS011;59606;52.138;5.424;2023-08-20T14:49:10;4.30;;;0.70;;
71771;SDS011;59606;52.138;5.424;2023-08-20T14:51:36;3.30;;;0.60;;
71771;SDS011;59606;52.138;5.424;2023-08-20T14:54:03;4.00;;;0.82;;
71771;SDS011;59606;52.138;5.424;2023-08-20T14:56:30;5.90;;;0.80;;
71771;SDS011;59606;52.138;5.424;2023-08-20T14:58:57;3.43;;;0.73;;
71771;SDS011;59606;52.138;5.424;2023-08-20T15:01:24;6.15;;;0.70;;
71771;SDS011;59606;52.138;5.424;2023-08-20T15:03:50;3.25;;;1.13;;